Time;durP1;ratioP1;P1;durP2;ratioP2;P2;SDS_P1;SDS_P2;PMS_P1;PMS_P2;Temp;Humidity;BMP_temperature;BMP_pressure;BME280_temperature;BME280_humidity;BME280_pressure;Samples;Min_cycle;Max_cycle;Signal;HPM_P1;HPM_P2
2022/07/09 00:01:18;;;;;;;3.08;1.20;;;;;;;12.61;100.00;103039.03;5034483;28;20029;-75
2022/07/09 00:03:44;;;;;;;1.30;0.80;;;;;;;12.63;100.00;103050.53;5045463;28;20033;-74
2022/07/09 00:06:09;;;;;;;2.08;1.00;;;;;;;12.64;100.00;103043.28;5049460;28;20085;-74
2022/07/09 00:08:35;;;;;;;1.77;1.10;;;;;;;12.74;100.00;103052.31;5042822;28;20458;-75
2022/07/09 00:11:01;;;;;;;1.58;0.90;;;;;;;12.70;100.00;103040.06;5047566;28;20536;-74
2022/07/09 00:13:26;;;;;;;2.60;0.80;;;;;;;12.72;100.00;103043.47;5066103;28;20040;-74
2022/07/09 00:15:52;;;;;;;3.25;1.08;;;;;;;12.79;100.00;103060.00;5031406;28;20045;-75
2022/07/09 00:18:25;;;;;;;1.10;0.65;;;;;;;12.77;100.00;103052.03;5067032;28;20032;-74
2022/07/09 00:20:55;;;;;;;1.33;0.57;;;;;;;12.78;100.00;103056.47;5044028;28;20106;-75
2022/07/09 00:23:44;;;;;;;0.50;0.50;;;;;;;12.79;100.00;103050.06;5066438;28;20155;-75
2022/07/09 00:26:10;;;;;;;1.83;1.00;;;;;;;12.76;100.00;103055.72;5029978;28;20045;-75
2022/07/09 00:29:00;;;;;;;0.98;0.70;;;;;;;12.72;100.00;103055.13;5057470;28;20033;-75
2022/07/09 00:32:06;;;;;;;1.15;0.90;;;;;;;12.49;100.00;103015.78;5021206;28;20044;-74
2022/07/09 00:34:46;;;;;;;;;;;;;;;;;;;;;
2022/07/09 00:37:41;;;;;;;1.60;0.90;;;;;;;12.65;100.00;103048.56;5008916;28;20561;-74
2022/07/09 00:40:31;;;;;;;;;;;;;;;;;;;;;
2022/07/09 00:43:54;;;;;;;2.08;0.80;;;;;;;12.39;100.00;102999.56;5045612;28;20052;-75
2022/07/09 00:46:41;;;;;;;1.45;0.88;;;;;;;12.36;100.00;103009.75;4965201;28;20055;-74
2022/07/09 00:49:07;;;;;;;2.85;1.00;;;;;;;12.39;100.00;103021.16;5060438;28;20036;-75
2022/07/09 00:51:33;;;;;;;3.50;1.08;;;;;;;12.40;100.00;103022.84;5045955;28;20948;-74
2022/07/09 00:54:11;;;;;;;2.63;0.90;;;;;;;12.33;100.00;103024.34;5029625;28;20097;-75
2022/07/09 00:56:37;;;;;;;2.17;1.40;;;;;;;12.28;100.00;103010.44;5071149;28;20025;-74
2022/07/09 00:59:07;;;;;;;2.72;1.20;;;;;;;12.25;100.00;103014.25;5048590;28;20086;-75
2022/07/09 01:01:33;;;;;;;2.65;0.95;;;;;;;12.22;100.00;103001.00;5051857;28;20055;-74
2022/07/09 01:03:59;;;;;;;1.80;0.90;;;;;;;12.18;100.00;103007.66;5066092;28;20060;-75
2022/07/09 01:06:24;;;;;;;2.83;1.08;;;;;;;12.23;100.00;103000.03;5045174;28;20045;-74
2022/07/09 01:08:50;;;;;;;16.60;1.75;;;;;;;12.21;100.00;103002.00;5045492;28;20059;-75
2022/07/09 01:11:15;;;;;;;4.20;1.17;;;;;;;12.25;100.00;103010.66;5052955;28;20377;-75
2022/07/09 01:13:42;;;;;;;2.78;1.40;;;;;;;12.21;100.00;103002.00;5027880;28;21934;-75
2022/07/09 01:16:14;;;;;;;3.45;1.30;;;;;;;12.19;100.00;103000.41;5058473;28;20191;-74
2022/07/09 01:18:42;;;;;;;4.33;1.33;;;;;;;12.16;100.00;102998.84;5030349;28;20032;-74
2022/07/09 01:21:08;;;;;;;23.10;2.15;;;;;;;12.12;100.00;102994.72;5050115;28;20428;-75
2022/07/09 01:23:34;;;;;;;2.17;1.10;;;;;;;12.09;100.00;102987.72;5030583;28;20097;-74
2022/07/09 01:26:00;;;;;;;8.18;1.20;;;;;;;12.09;100.00;102986.84;5046748;28;20036;-75
2022/07/09 01:28:26;;;;;;;7.18;1.48;;;;;;;12.05;100.00;102985.44;5028205;28;20036;-74
2022/07/09 01:30:52;;;;;;;19.95;1.45;;;;;;;12.05;100.00;102988.13;5067596;28;20052;-74
2022/07/09 01:33:18;;;;;;;9.00;1.45;;;;;;;12.07;100.00;103005.88;5047914;28;20029;-74
2022/07/09 01:35:43;;;;;;;6.50;1.30;;;;;;;12.13;100.00;102992.88;5035769;28;20039;-76
2022/07/09 01:38:09;;;;;;;2.53;0.93;;;;;;;12.08;100.00;102991.41;5065788;28;20102;-75
2022/07/09 01:40:37;;;;;;;11.65;1.40;;;;;;;12.04;100.00;102994.47;5029306;28;20045;-75
2022/07/09 01:43:02;;;;;;;3.25;1.00;;;;;;;11.98;100.00;102981.53;5042820;28;20366;-76
2022/07/09 01:45:28;;;;;;;7.82;1.23;;;;;;;11.90;100.00;102982.19;5046244;28;20041;-74
2022/07/09 01:47:54;;;;;;;7.65;1.50;;;;;;;11.88;100.00;102979.63;5060409;28;20032;-74
2022/07/09 01:50:20;;;;;;;2.75;0.80;;;;;;;11.93;100.00;102986.47;5074201;28;20024;-75
2022/07/09 01:52:45;;;;;;;7.50;1.38;;;;;;;11.90;100.00;102973.25;5052383;28;20059;-75
2022/07/09 01:55:11;;;;;;;7.55;1.25;;;;;;;11.91;100.00;102977.63;5070517;28;20162;-75
2022/07/09 01:57:37;;;;;;;2.03;1.10;;;;;;;11.94;100.00;102983.66;5033953;28;20410;-74
2022/07/09 02:00:04;;;;;;;3.60;0.77;;;;;;;11.94;100.00;102978.25;5028987;28;20452;-74
2022/07/09 02:02:30;;;;;;;4.55;1.10;;;;;;;11.90;100.00;102990.28;5049836;28;20052;-75
2022/07/09 02:04:56;;;;;;;1.45;0.80;;;;;;;11.88;100.00;102979.63;5061281;28;20110;-75
2022/07/09 02:07:21;;;;;;;4.53;0.80;;;;;;;11.88;100.00;102970.66;5038813;28;20033;-74
2022/07/09 02:09:49;;;;;;;4.07;1.08;;;;;;;11.85;100.00;102971.78;5039005;28;20056;-75
2022/07/09 02:12:16;;;;;;;6.10;1.00;;;;;;;11.90;100.00;102982.19;5060460;28;21802;-74
2022/07/09 02:14:41;;;;;;;6.38;0.95;;;;;;;11.91;100.00;102978.53;5059005;28;20035;-75
2022/07/09 02:17:07;;;;;;;3.55;1.10;;;;;;;11.85;100.00;102987.94;5052050;28;20028;-74
2022/07/09 02:19:33;;;;;;;2.90;0.93;;;;;;;11.82;100.00;102985.50;5049623;28;20031;-74
2022/07/09 02:22:02;;;;;;;1.48;0.70;;;;;;;11.48;100.00;102932.72;5067598;28;20090;-74
2022/07/09 02:24:28;;;;;;;1.83;0.77;;;;;;;11.70;100.00;102981.16;5031749;28;20470;-74
2022/07/09 02:26:56;;;;;;;1.35;0.85;;;;;;;11.66;100.00;102979.69;5042001;28;20040;-74
2022/07/09 02:29:22;;;;;;;1.80;1.00;;;;;;;11.60;100.00;102972.97;5031081;28;20039;-74
2022/07/09 02:31:47;;;;;;;7.22;0.93;;;;;;;11.62;100.00;102967.47;5043202;28;20032;-75
2022/07/09 02:34:13;;;;;;;4.88;0.90;;;;;;;11.59;100.00;102965.00;5030405;28;20048;-75
2022/07/09 02:36:42;;;;;;;1.90;0.90;;;;;;;11.57;100.00;102967.00;5046199;28;20037;-75
2022/07/09 02:39:10;;;;;;;2.83;0.85;;;;;;;11.50;100.00;102963.94;5043964;28;20059;-74
2022/07/09 02:41:36;;;;;;;2.97;0.77;;;;;;;11.45;100.00;102961.63;5058698;28;20390;-75
2022/07/09 02:44:02;;;;;;;2.70;0.75;;;;;;;11.44;100.00;102959.94;5050730;28;20031;-74
2022/07/09 02:46:27;;;;;;;2.78;0.93;;;;;;;11.13;100.00;102906.91;5033602;28;20037;-76
2022/07/09 02:48:53;;;;;;;2.97;0.63;;;;;;;11.37;100.00;102956.03;5069357;28;20035;-74
2022/07/09 02:51:19;;;;;;;2.25;0.70;;;;;;;11.36;100.00;102957.03;5051233;28;20129;-75
2022/07/09 02:53:45;;;;;;;2.60;0.80;;;;;;;11.36;100.00;102954.31;5054193;28;20461;-74
2022/07/09 02:56:11;;;;;;;3.28;0.70;;;;;;;11.31;100.00;102944.91;5045431;28;20548;-74
2022/07/09 02:58:36;;;;;;;4.60;0.63;;;;;;;11.36;100.00;102954.31;5063794;28;20025;-74
2022/07/09 03:01:05;;;;;;;3.08;0.68;;;;;;;11.39;100.00;102951.38;5050254;28;20501;-75
2022/07/09 03:03:31;;;;;;;1.77;0.68;;;;;;;11.43;100.00;102951.97;5029448;28;20097;-75
2022/07/09 03:05:57;;;;;;;7.38;0.80;;;;;;;11.39;100.00;102950.53;5049840;28;20036;-74
2022/07/09 03:08:23;;;;;;;9.50;0.90;;;;;;;11.31;100.00;102948.47;5049405;28;20037;-74
2022/07/09 03:10:49;;;;;;;3.45;0.70;;;;;;;11.23;100.00;102942.84;5036358;28;20492;-74
2022/07/09 03:13:15;;;;;;;4.07;0.82;;;;;;;11.27;100.00;102947.00;5051849;28;20636;-74
2022/07/09 03:15:41;;;;;;;2.42;0.60;;;;;;;11.22;100.00;102946.53;5037223;28;20108;-74
2022/07/09 03:18:12;;;;;;;1.77;0.63;;;;;;;11.14;100.00;102941.78;5049831;28;20505;-77
2022/07/09 03:20:38;;;;;;;1.85;0.85;;;;;;;11.09;100.00;102938.63;5033689;28;20037;-74
2022/07/09 03:23:04;;;;;;;1.15;0.68;;;;;;;11.05;100.00;102942.53;5032781;28;20031;-74
2022/07/09 03:25:30;;;;;;;2.38;0.70;;;;;;;10.96;100.00;102944.13;5040275;28;20151;-74
2022/07/09 03:27:55;;;;;;;1.40;0.75;;;;;;;10.87;100.00;102950.25;5032423;28;20044;-75
2022/07/09 03:30:24;;;;;;;6.93;0.95;;;;;;;10.78;100.00;102951.00;5047663;28;20032;-75
2022/07/09 03:32:50;;;;;;;2.72;0.82;;;;;;;10.71;100.00;102947.94;5061044;28;20063;-74
2022/07/09 03:35:17;;;;;;;3.38;0.63;;;;;;;10.70;100.00;102956.16;5033741;28;20036;-74
2022/07/09 03:37:42;;;;;;;1.70;0.70;;;;;;;10.67;100.00;102957.25;5065244;28;20035;-74
2022/07/09 03:40:09;;;;;;;2.70;0.85;;;;;;;10.60;100.00;102947.94;5035392;28;20037;-75
2022/07/09 03:42:35;;;;;;;1.23;0.60;;;;;;;10.51;100.00;102951.38;5046174;28;20110;-74
2022/07/09 03:45:00;;;;;;;1.00;0.57;;;;;;;10.39;100.00;102947.81;5033526;28;20131;-75
2022/07/09 03:47:26;;;;;;;1.05;0.60;;;;;;;10.42;100.00;102949.41;5031589;28;20498;-75
2022/07/09 03:49:52;;;;;;;1.10;0.68;;;;;;;10.44;100.00;102955.53;5057549;28;20028;-74
2022/07/09 03:52:18;;;;;;;2.08;0.60;;;;;;;10.47;100.00;102955.28;5068898;28;20037;-75
2022/07/09 03:54:44;;;;;;;3.40;0.77;;;;;;;10.47;100.00;102941.84;5051642;28;20078;-76
2022/07/09 03:57:10;;;;;;;1.25;0.55;;;;;;;10.45;100.00;102936.59;5051766;28;20127;-75
2022/07/09 03:59:36;;;;;;;3.13;0.70;;;;;;;10.55;100.00;102945.63;5045892;28;20466;-75
2022/07/09 04:02:04;;;;;;;1.30;0.70;;;;;;;10.54;100.00;102938.53;5057387;28;20329;-74
2022/07/09 04:04:29;;;;;;;0.93;0.52;;;;;;;10.65;100.00;102951.13;5049871;28;20048;-74
2022/07/09 04:06:55;;;;;;;2.10;0.50;;;;;;;10.68;100.00;102939.28;5047699;28;20044;-74
2022/07/09 04:09:21;;;;;;;2.58;0.60;;;;;;;10.71;100.00;102933.63;5066799;28;20465;-74
2022/07/09 04:11:47;;;;;;;0.70;0.43;;;;;;;10.78;100.00;102940.25;5041123;28;20127;-75
2022/07/09 04:14:14;;;;;;;1.98;0.60;;;;;;;10.83;100.00;102934.50;5051011;28;20036;-76
2022/07/09 04:16:40;;;;;;;1.13;0.40;;;;;;;10.86;100.00;102945.00;5031999;28;20053;-74
2022/07/09 04:19:06;;;;;;;0.38;0.38;;;;;;;10.86;100.00;102937.78;5066821;28;20071;-74
2022/07/09 04:21:31;;;;;;;4.72;0.60;;;;;;;10.81;100.00;102936.47;5047692;28;20498;-75
2022/07/09 04:23:57;;;;;;;1.95;0.50;;;;;;;10.70;100.00;102934.63;5051047;28;20045;-74
2022/07/09 04:26:23;;;;;;;5.60;0.60;;;;;;;10.66;100.00;102942.06;5028151;28;20029;-75
2022/07/09 04:28:49;;;;;;;4.47;0.73;;;;;;;10.56;100.00;102950.03;5031605;28;20306;-75
2022/07/09 04:31:16;;;;;;;2.55;0.60;;;;;;;10.46;100.00;102935.59;5044354;28;20045;-75
2022/07/09 04:33:44;;;;;;;4.00;0.80;;;;;;;10.42;100.00;102942.19;5056935;28;20694;-75
2022/07/09 04:36:10;;;;;;;3.47;0.70;;;;;;;10.37;100.00;102940.84;5053532;28;20320;-74
2022/07/09 04:38:36;;;;;;;3.47;0.50;;;;;;;10.22;100.00;102924.94;5033984;28;20071;-75
2022/07/09 04:41:01;;;;;;;3.08;0.80;;;;;;;10.36;100.00;102934.63;5056865;28;20501;-75
2022/07/09 04:43:27;;;;;;;2.80;0.55;;;;;;;10.48;100.00;102939.03;5031386;28;20291;-75
2022/07/09 04:45:53;;;;;;;3.45;0.68;;;;;;;10.55;100.00;102932.16;5038598;28;21803;-75
2022/07/09 04:48:19;;;;;;;7.85;0.90;;;;;;;10.68;100.00;102947.34;5065551;28;20024;-75
2022/07/09 04:50:44;;;;;;;6.65;0.70;;;;;;;10.70;100.00;102932.78;5033394;28;20044;-75
2022/07/09 04:53:10;;;;;;;1.10;0.50;;;;;;;10.72;100.00;102930.84;5060557;28;20032;-75
2022/07/09 04:55:36;;;;;;;6.13;0.60;;;;;;;10.75;100.00;102935.97;5028717;28;20044;-75
2022/07/09 04:58:01;;;;;;;5.38;0.77;;;;;;;10.71;100.00;102934.50;5047947;28;20394;-74
2022/07/09 05:00:27;;;;;;;1.77;0.50;;;;;;;10.73;100.00;102937.06;5029812;28;20371;-75
2022/07/09 05:02:53;;;;;;;1.65;0.50;;;;;;;10.72;100.00;102938.91;5034744;28;20465;-75
2022/07/09 05:05:22;;;;;;;6.35;0.60;;;;;;;10.74;100.00;102934.28;5054378;28;20036;-74
2022/07/09 05:07:47;;;;;;;3.25;0.50;;;;;;;10.88;100.00;102943.06;5044297;28;20066;-74
2022/07/09 05:10:13;;;;;;;2.13;0.50;;;;;;;10.96;100.00;102946.84;5033178;28;20016;-74
2022/07/09 05:12:40;;;;;;;1.60;0.40;;;;;;;10.99;100.00;102937.66;5027359;28;20501;-74
2022/07/09 05:15:06;;;;;;;1.45;0.50;;;;;;;10.90;100.00;102923.13;5023610;28;20050;-74
2022/07/09 05:17:36;;;;;;;0.88;0.60;;;;;;;11.11;100.00;102946.53;5045653;28;20470;-75
2022/07/09 05:20:06;;;;;;;1.30;0.40;;;;;;;11.16;100.00;102941.66;5045917;28;20037;-75
2022/07/09 05:22:32;;;;;;;0.95;0.50;;;;;;;11.24;100.00;102936.47;5045939;28;20470;-73
2022/07/09 05:24:58;;;;;;;0.50;0.40;;;;;;;11.33;100.00;102935.72;5062890;28;20067;-74
2022/07/09 05:27:25;;;;;;;1.52;0.73;;;;;;;11.36;100.00;102938.16;5049864;28;20033;-74
2022/07/09 05:29:50;;;;;;;0.40;0.40;;;;;;;11.35;100.00;102933.78;5044025;28;20074;-73
2022/07/09 05:32:16;;;;;;;0.50;0.50;;;;;;;11.38;100.00;102933.50;5060144;28;20032;-74
2022/07/09 05:34:42;;;;;;;3.65;0.50;;;;;;;11.60;100.00;102943.34;5046224;28;20040;-75
2022/07/09 05:37:08;;;;;;;0.40;0.40;;;;;;;11.79;100.00;102942.63;5064860;28;20071;-74
2022/07/09 05:39:33;;;;;;;0.63;0.40;;;;;;;11.82;100.00;102931.59;5028709;28;20057;-74
2022/07/09 05:42:01;;;;;;;0.70;0.40;;;;;;;11.85;100.00;102944.81;5057685;28;20040;-74
2022/07/09 05:44:27;;;;;;;0.60;0.38;;;;;;;11.81;100.00;102937.13;5061139;28;20033;-75
2022/07/09 05:46:53;;;;;;;2.05;0.43;;;;;;;11.85;100.00;102944.81;5061427;28;20097;-74
2022/07/09 05:49:18;;;;;;;1.20;0.63;;;;;;;11.87;100.00;102944.72;5029424;28;20749;-75
2022/07/09 05:51:44;;;;;;;0.73;0.52;;;;;;;12.03;100.00;102945.09;5051584;28;20029;-75
2022/07/09 05:54:09;;;;;;;2.45;0.50;;;;;;;12.16;100.00;102933.25;5026209;28;20132;-74
2022/07/09 05:56:36;;;;;;;3.28;0.60;;;;;;;12.36;100.00;102936.91;5060544;28;20420;-74
2022/07/09 05:59:03;;;;;;;1.20;0.38;;;;;;;12.44;100.00;102947.91;5066636;28;20024;-75
2022/07/09 06:01:29;;;;;;;0.88;0.60;;;;;;;12.56;100.00;102941.41;5062016;28;20029;-74
2022/07/09 06:03:55;;;;;;;1.88;0.60;;;;;;;12.68;100.00;102939.47;5065231;28;20452;-74
2022/07/09 06:06:20;;;;;;;0.65;0.52;;;;;;;12.86;100.00;102942.38;5030267;28;20453;-74
2022/07/09 06:08:46;;;;;;;0.75;0.50;;;;;;;12.87;100.00;102938.69;5035813;28;20036;-74
2022/07/09 06:11:12;;;;;;;0.93;0.40;;;;;;;13.05;100.00;102947.84;5029150;28;20569;-74
2022/07/09 06:13:37;;;;;;;0.57;0.45;;;;;;;13.14;100.00;102947.00;5071738;28;20036;-74
2022/07/09 06:16:04;;;;;;;1.00;0.50;;;;;;;13.56;100.00;102945.94;5045417;28;20040;-76
2022/07/09 06:18:29;;;;;;;0.40;0.40;;;;;;;13.70;100.00;102947.34;5032508;28;20044;-74
2022/07/09 06:20:55;;;;;;;0.40;0.40;;;;;;;13.72;100.00;102953.47;5045601;28;20043;-74
2022/07/09 06:23:21;;;;;;;1.42;0.40;;;;;;;13.59;100.00;102951.91;5057736;28;20163;-75
2022/07/09 06:25:47;;;;;;;0.65;0.55;;;;;;;13.68;100.00;102957.44;5033727;28;20469;-75
2022/07/09 06:28:12;;;;;;;0.50;0.50;;;;;;;14.14;100.00;102956.69;5037607;28;20094;-73
2022/07/09 06:30:38;;;;;;;1.65;0.57;;;;;;;14.70;100.00;102963.09;5029541;28;20542;-73
2022/07/09 06:33:04;;;;;;;5.25;0.60;;;;;;;15.35;100.00;102963.88;5068696;28;20085;-75
2022/07/09 06:35:30;;;;;;;0.45;0.43;;;;;;;15.79;100.00;102960.41;5050467;28;20360;-74
2022/07/09 06:37:57;;;;;;;1.65;0.55;;;;;;;15.91;97.68;102967.31;5054090;28;20073;-74
2022/07/09 06:40:23;;;;;;;0.43;0.40;;;;;;;15.81;96.21;102964.66;5033283;28;20544;-75
2022/07/09 06:42:48;;;;;;;0.60;0.50;;;;;;;15.92;96.61;102969.00;5065806;28;20044;-74
2022/07/09 06:45:14;;;;;;;0.50;0.50;;;;;;;15.99;94.51;102966.50;5068242;28;20134;-73
2022/07/09 06:47:40;;;;;;;0.60;0.50;;;;;;;16.02;94.95;102975.19;5036542;28;20037;-74
2022/07/09 06:50:06;;;;;;;1.20;0.50;;;;;;;16.27;94.05;102973.50;5042509;28;20039;-75
2022/07/09 06:52:32;;;;;;;0.35;0.35;;;;;;;16.27;89.51;102968.09;5035810;28;20031;-74
2022/07/09 06:54:58;;;;;;;0.40;0.40;;;;;;;16.16;86.97;102976.47;5054771;28;20031;-73
2022/07/09 06:57:23;;;;;;;0.47;0.45;;;;;;;16.13;86.34;102975.94;5070340;28;20190;-76
2022/07/09 06:59:49;;;;;;;0.52;0.50;;;;;;;16.00;89.19;102974.47;5047307;28;20025;-76
2022/07/09 07:02:18;;;;;;;0.60;0.50;;;;;;;15.87;87.68;102979.47;5046110;28;20028;-75
2022/07/09 07:04:44;;;;;;;0.40;0.40;;;;;;;15.77;90.57;102975.97;5060404;28;20025;-76
2022/07/09 07:08:02;;;;;;;0.60;0.60;;;;;;;15.85;89.11;102942.66;5045223;28;20052;-76
2022/07/09 07:10:27;;;;;;;0.50;0.50;;;;;;;16.32;87.32;102981.16;5027978;28;20040;-75
2022/07/09 07:12:54;;;;;;;0.47;0.40;;;;;;;16.43;85.20;102975.47;5045581;28;20048;-75
2022/07/09 07:15:19;;;;;;;0.73;0.60;;;;;;;16.49;85.33;102982.13;5032772;28;20497;-75
2022/07/09 07:17:45;;;;;;;0.40;0.40;;;;;;;16.60;84.10;102978.28;5018702;28;20062;-75
2022/07/09 07:20:33;;;;;;;1.63;0.60;;;;;;;16.39;83.70;102989.53;5046310;28;20036;-75
2022/07/09 07:23:00;;;;;;;0.70;0.57;;;;;;;16.03;85.69;102990.44;5047258;28;20041;-75
2022/07/09 07:25:52;;;;;;;0.95;0.60;;;;;;;15.39;86.91;102943.56;5050771;28;20051;-75
2022/07/09 07:28:22;;;;;;;0.77;0.55;;;;;;;15.68;88.60;102994.00;5058950;28;20426;-75
2022/07/09 07:30:51;;;;;;;1.35;0.93;;;;;;;15.91;89.68;102980.03;5067343;28;20044;-75
2022/07/09 07:33:34;;;;;;;0.77;0.60;;;;;;;16.41;87.14;102990.22;5028184;28;20043;-75
2022/07/09 07:36:26;;;;;;;0.60;0.60;;;;;;;17.13;81.47;102980.75;5052379;28;20047;-75
2022/07/09 07:38:53;;;;;;;0.70;0.60;;;;;;;17.95;78.24;102978.16;5046049;28;20044;-74
2022/07/09 07:41:21;;;;;;;1.08;0.68;;;;;;;18.15;77.18;102970.50;5031711;28;20482;-75
2022/07/09 07:43:47;;;;;;;1.10;0.70;;;;;;;17.88;79.68;102979.84;5063103;28;20032;-73
2022/07/09 07:46:13;;;;;;;1.40;0.70;;;;;;;17.73;80.29;102982.41;5043814;28;20360;-73
2022/07/09 07:48:41;;;;;;;0.77;0.75;;;;;;;17.86;79.79;102981.03;5047191;28;21414;-73
2022/07/09 07:51:08;;;;;;;0.60;0.60;;;;;;;18.21;78.45;102974.41;5035099;28;20040;-76
2022/07/09 07:53:34;;;;;;;1.10;0.90;;;;;;;18.51;77.63;102977.41;5048683;28;20032;-74
2022/07/09 07:56:06;;;;;;;1.17;0.85;;;;;;;18.30;75.73;102962.47;5052353;28;20363;-74
2022/07/09 07:58:33;;;;;;;0.82;0.70;;;;;;;18.14;77.94;102970.66;5063159;28;20130;-74
2022/07/09 08:00:59;;;;;;;1.30;0.80;;;;;;;17.90;77.93;102979.69;5052162;28;20024;-73
2022/07/09 08:03:25;;;;;;;1.67;0.90;;;;;;;17.64;80.16;102977.09;5036813;28;20139;-74
2022/07/09 08:05:51;;;;;;;1.65;0.90;;;;;;;17.53;80.73;102984.56;5041089;28;20055;-74
2022/07/09 08:08:18;;;;;;;1.50;0.80;;;;;;;17.63;81.02;102984.41;5033285;28;20029;-75
2022/07/09 08:10:48;;;;;;;1.30;0.90;;;;;;;17.76;79.19;102978.47;5030071;28;20047;-74
2022/07/09 08:13:19;;;;;;;2.20;1.00;;;;;;;17.82;78.97;102980.56;5048560;28;20127;-74
2022/07/09 08:15:45;;;;;;;1.35;0.90;;;;;;;17.99;78.02;102981.38;5044204;28;20584;-74
2022/07/09 08:18:14;;;;;;;1.45;0.80;;;;;;;18.22;75.95;102985.13;5030784;28;20381;-74
2022/07/09 08:20:51;;;;;;;;;;;;;;;;;;;;;
2022/07/09 08:27:34;;;;;;;;;;;;;;;;;;;;;
2022/07/09 08:30:01;;;;;;;1.15;0.80;;;;;;;22.97;57.58;102963.41;5039331;28;20119;-75
2022/07/09 08:32:27;;;;;;;1.27;1.00;;;;;;;23.17;58.23;102985.41;5024876;28;20128;-75
2022/07/09 08:34:53;;;;;;;2.28;1.00;;;;;;;22.71;57.38;102985.19;5024962;28;20166;-75
2022/07/09 08:37:19;;;;;;;1.17;0.90;;;;;;;22.14;59.49;102981.59;5036132;28;20040;-76
2022/07/09 08:39:45;;;;;;;1.08;0.85;;;;;;;21.59;60.28;102983.22;5049218;28;20048;-75
2022/07/09 08:42:14;;;;;;;1.08;0.88;;;;;;;21.21;62.32;102991.63;5030365;28;20119;-74
2022/07/09 08:44:43;;;;;;;1.65;1.10;;;;;;;21.13;61.28;102989.00;5053008;28;20036;-74
2022/07/09 08:47:10;;;;;;;1.58;1.13;;;;;;;21.12;62.45;102985.44;5061768;28;20043;-77
2022/07/09 08:49:36;;;;;;;1.70;1.08;;;;;;;21.18;60.63;102990.13;5058316;28;20050;-76
2022/07/09 08:52:02;;;;;;;1.73;1.10;;;;;;;21.14;60.23;102990.69;5065307;28;20032;-76
2022/07/09 08:54:28;;;;;;;1.70;1.13;;;;;;;21.11;61.60;102969.19;5052338;28;20032;-77
2022/07/09 08:56:53;;;;;;;1.10;1.00;;;;;;;22.06;60.74;102979.03;5039033;28;20040;-76
2022/07/09 08:59:19;;;;;;;1.52;1.23;;;;;;;23.09;56.00;102977.34;5038852;28;20090;-77
2022/07/09 09:01:45;;;;;;;1.50;1.25;;;;;;;24.11;51.77;102981.78;5049147;28;20070;-77
2022/07/09 09:04:11;;;;;;;1.40;1.15;;;;;;;25.10;50.10;102987.22;5061736;28;20439;-77
2022/07/09 09:06:38;;;;;;;1.50;1.30;;;;;;;24.53;50.20;102974.13;5066192;28;20104;-78
2022/07/09 09:09:03;;;;;;;1.50;1.30;;;;;;;24.46;50.32;102980.69;5050911;28;20483;-76
2022/07/09 09:11:33;;;;;;;1.15;1.05;;;;;;;24.23;52.15;102967.38;5047931;28;20029;-75
2022/07/09 09:14:18;;;;;;;1.52;1.20;;;;;;;24.90;48.88;102962.53;5083306;28;20031;-77
2022/07/09 09:16:44;;;;;;;1.50;1.17;;;;;;;26.07;47.63;102974.13;5040312;28;20488;-76
2022/07/09 09:19:10;;;;;;;1.20;1.10;;;;;;;28.18;43.22;102976.19;5065452;28;20025;-76
2022/07/09 09:21:37;;;;;;;1.33;1.20;;;;;;;30.27;37.04;102973.88;5066356;28;20032;-77
2022/07/09 09:24:03;;;;;;;0.80;0.80;;;;;;;30.58;34.35;102966.81;5061667;28;20029;-77
2022/07/09 09:26:28;;;;;;;0.80;0.80;;;;;;;29.27;36.82;102970.81;5065020;28;20444;-75
2022/07/09 09:29:03;;;;;;;1.20;0.93;;;;;;;27.55;41.44;102967.44;5064738;28;20037;-85
2022/07/09 09:31:36;;;;;;;0.90;0.90;;;;;;;26.11;42.99;102947.78;5062183;28;20465;-85
2022/07/09 09:34:11;;;;;;;1.25;1.00;;;;;;;25.52;46.99;102960.13;5041640;28;20028;-85
2022/07/09 09:36:51;;;;;;;1.50;1.40;;;;;;;25.23;48.01;102952.25;5037593;28;20028;-86
2022/07/09 09:39:31;;;;;;;1.20;1.08;;;;;;;24.91;47.77;102951.31;5033494;28;20331;-86
2022/07/09 09:42:01;;;;;;;1.52;1.20;;;;;;;24.44;49.70;102939.66;5048849;28;20040;-87
2022/07/09 09:44:30;;;;;;;1.85;1.10;;;;;;;24.23;48.92;102950.88;5041505;28;20508;-85
2022/07/09 09:46:57;;;;;;;1.27;1.02;;;;;;;23.64;51.95;102960.81;5059709;28;20031;-87
2022/07/09 09:49:23;;;;;;;1.50;1.40;;;;;;;24.30;51.37;102957.22;5072956;28;20040;-86
2022/07/09 09:52:00;;;;;;;1.60;1.20;;;;;;;24.65;52.22;102941.28;5040261;28;20411;-86
2022/07/09 09:54:26;;;;;;;2.90;1.70;;;;;;;28.22;44.29;102947.81;5036971;28;20474;-88
2022/07/09 09:56:52;;;;;;;1.50;1.40;;;;;;;30.88;38.29;102941.41;5053888;28;20052;-89
2022/07/09 09:59:17;;;;;;;2.42;1.60;;;;;;;32.15;34.20;102962.28;5068502;28;20035;-89
2022/07/09 10:01:44;;;;;;;1.88;1.63;;;;;;;33.16;31.95;102946.28;5064218;28;20358;-89
2022/07/09 10:04:12;;;;;;;1.45;1.35;;;;;;;33.92;31.79;102953.84;5073386;28;20028;-88
2022/07/09 10:06:39;;;;;;;1.45;1.35;;;;;;;31.52;33.56;102949.03;5035068;28;20060;-86
2022/07/09 10:09:07;;;;;;;1.35;1.25;;;;;;;29.16;38.54;102949.53;5048172;28;20037;-86
2022/07/09 10:11:40;;;;;;;1.70;1.17;;;;;;;27.69;40.21;102945.97;5078376;28;20020;-86
2022/07/09 10:14:06;;;;;;;1.60;1.50;;;;;;;28.22;40.68;102944.22;5080463;28;20045;-87
2022/07/09 10:16:37;;;;;;;1.42;1.33;;;;;;;29.52;37.61;102941.88;5082293;28;20033;-86
2022/07/09 10:19:03;;;;;;;2.55;1.25;;;;;;;29.32;38.49;102934.88;5069427;28;20120;-87
2022/07/09 10:21:40;;;;;;;1.30;1.20;;;;;;;30.27;37.57;102945.31;5067682;28;20039;-88
2022/07/09 10:24:08;;;;;;;1.50;1.30;;;;;;;30.53;35.58;102943.72;5049909;28;20037;-85
2022/07/09 10:26:46;;;;;;;1.85;1.15;;;;;;;31.01;36.28;102934.56;5033490;28;20123;-85
2022/07/09 10:29:19;;;;;;;1.20;1.10;;;;;;;32.06;34.19;102941.66;5065027;28;20087;-87
2022/07/09 10:31:46;;;;;;;1.02;0.93;;;;;;;31.86;33.96;102937.59;5056389;28;20036;-87
2022/07/09 10:34:31;;;;;;;1.60;1.50;;;;;;;32.48;33.42;102919.34;5023422;28;20059;-87
2022/07/09 10:37:02;;;;;;;1.50;1.40;;;;;;;32.78;32.99;102913.03;5069925;28;20044;-87
2022/07/09 10:39:29;;;;;;;2.05;1.60;;;;;;;32.31;33.49;102924.25;5068873;28;20032;-87
2022/07/09 10:42:05;;;;;;;2.30;1.50;;;;;;;31.79;33.81;102914.72;5046998;28;20395;-88
2022/07/09 10:44:39;;;;;;;1.92;1.48;;;;;;;31.40;35.25;102901.09;5050072;28;20044;-91
2022/07/09 10:47:05;;;;;;;1.80;1.48;;;;;;;31.66;34.11;102920.75;5047166;28;20501;-88
2022/07/09 10:49:34;;;;;;;1.80;1.40;;;;;;;31.30;35.33;102912.06;5070728;28;20036;-89
2022/07/09 10:52:00;;;;;;;1.38;1.20;;;;;;;31.28;35.19;102906.81;5060300;28;20228;-85
2022/07/09 10:54:26;;;;;;;1.60;1.40;;;;;;;31.44;35.14;102915.31;5073302;28;20528;-89
2022/07/09 10:56:53;;;;;;;1.88;1.52;;;;;;;32.23;35.12;102908.06;5053730;28;20028;-90
2022/07/09 10:59:18;;;;;;;1.90;1.60;;;;;;;32.68;32.85;102904.63;5042227;28;20459;-89
2022/07/09 11:01:44;;;;;;;2.25;1.30;;;;;;;30.21;36.43;102906.34;5056683;28;20059;-87
2022/07/09 11:04:11;;;;;;;1.50;1.20;;;;;;;27.95;40.25;102907.91;5044326;28;20067;-86
2022/07/09 11:06:45;;;;;;;1.35;1.25;;;;;;;30.21;38.23;102886.91;5067401;28;20032;-88
2022/07/09 11:09:15;;;;;;;1.77;1.52;;;;;;;30.53;36.50;102890.97;5057316;28;20041;-88
2022/07/09 11:11:44;;;;;;;1.70;1.50;;;;;;;30.46;37.18;102893.94;5026199;28;20040;-87
2022/07/09 11:14:10;;;;;;;1.75;1.50;;;;;;;31.41;34.62;102907.47;5093571;28;20024;-89
2022/07/09 11:16:36;;;;;;;2.10;1.60;;;;;;;30.17;36.79;102891.31;5066772;28;20505;-90
2022/07/09 11:19:15;;;;;;;1.90;1.70;;;;;;;32.35;35.35;102903.94;5069833;28;20029;-89
2022/07/09 11:21:41;;;;;;;2.63;1.40;;;;;;;33.80;32.74;102898.38;5061642;28;20707;-87
2022/07/09 11:24:19;;;;;;;1.50;1.40;;;;;;;33.66;32.01;102892.53;5065191;28;20128;-90
2022/07/09 11:26:46;;;;;;;1.80;1.70;;;;;;;34.72;31.10;102894.41;5049528;28;20035;-90
2022/07/09 11:29:12;;;;;;;2.08;1.50;;;;;;;34.78;29.88;102896.06;5059925;28;20044;-91
2022/07/09 11:31:49;;;;;;;2.30;1.50;;;;;;;34.05;30.56;102897.44;5068977;28;20131;-89
2022/07/09 11:34:16;;;;;;;1.83;1.45;;;;;;;34.29;30.46;102905.22;5062228;28;20127;-89
2022/07/09 11:36:46;;;;;;;1.85;1.65;;;;;;;33.96;31.09;102890.78;5051388;28;20686;-89